sensor_id;sensor_type;location;lat;lon;timestamp;P1;durP1;ratioP1;P2;durP2;ratioP2
63784;SDS011;49927;48.146;11.420;2023-02-21T00:02:15;11.73;;;3.38;;
63784;SDS011;49927;48.146;11.420;2023-02-21T00:04:41;47.33;;;14.23;;
63784;SDS011;49927;48.146;11.420;2023-02-21T00:07:07;14.13;;;5.68;;
63784;SDS011;49927;48.146;11.420;2023-02-21T00:09:32;24.85;;;8.98;;
63784;SDS011;49927;48.146;11.420;2023-02-21T00:11:59;32.42;;;13.07;;
63784;SDS011;49927;48.146;11.420;2023-02-21T00:14:25;8.35;;;4.25;;
63784;SDS011;49927;48.146;11.420;2023-02-21T00:16:50;6.70;;;2.25;;
63784;SDS011;49927;48.146;11.420;2023-02-21T00:19:16;5.70;;;2.42;;
63784;SDS011;49927;48.146;11.420;2023-02-21T00:21:42;2.63;;;2.33;;
63784;SDS011;49927;48.146;11.420;2023-02-21T00:24:07;6.63;;;2.53;;
63784;SDS011;49927;48.146;11.420;2023-02-21T00:26:36;3.33;;;2.17;;
63784;SDS011;49927;48.146;11.420;2023-02-21T00:29:03;2.80;;;2.05;;
63784;SDS011;49927;48.146;11.420;2023-02-21T00:31:29;2.75;;;1.92;;
63784;SDS011;49927;48.146;11.420;2023-02-21T00:33:54;2.55;;;2.08;;
63784;SDS011;49927;48.146;11.420;2023-02-21T00:36:20;5.63;;;2.10;;
63784;SDS011;49927;48.146;11.420;2023-02-21T00:38:45;2.85;;;1.95;;
63784;SDS011;49927;48.146;11.420;2023-02-21T00:41:11;6.68;;;2.38;;
63784;SDS011;49927;48.146;11.420;2023-02-21T00:43:36;4.88;;;2.15;;
63784;SDS011;49927;48.146;11.420;2023-02-21T00:46:03;2.72;;;2.08;;
63784;SDS011;49927;48.146;11.420;2023-02-21T00:48:29;3.75;;;2.42;;
63784;SDS011;49927;48.146;11.420;2023-02-21T00:50:54;5.22;;;2.13;;
63784;SDS011;49927;48.146;11.420;2023-02-21T00:53:22;3.30;;;1.90;;
63784;SDS011;49927;48.146;11.420;2023-02-21T00:55:48;5.68;;;2.00;;
63784;SDS011;49927;48.146;11.420;2023-02-21T00:58:13;4.32;;;2.42;;
63784;SDS011;49927;48.146;11.420;2023-02-21T01:00:39;6.55;;;2.35;;
63784;SDS011;49927;48.146;11.420;2023-02-21T01:03:06;3.10;;;2.30;;
63784;SDS011;49927;48.146;11.420;2023-02-21T01:05:31;8.02;;;2.40;;
63784;SDS011;49927;48.146;11.420;2023-02-21T01:07:57;4.63;;;2.88;;
63784;SDS011;49927;48.146;11.420;2023-02-21T01:10:22;3.72;;;2.17;;
63784;SDS011;49927;48.146;11.420;2023-02-21T01:12:48;6.00;;;2.42;;
63784;SDS011;49927;48.146;11.420;2023-02-21T01:15:13;4.63;;;2.25;;
63784;SDS011;49927;48.146;11.420;2023-02-21T01:17:39;2.45;;;1.83;;
63784;SDS011;49927;48.146;11.420;2023-02-21T01:20:07;3.05;;;2.03;;
63784;SDS011;49927;48.146;11.420;2023-02-21T01:22:32;4.40;;;2.55;;
63784;SDS011;49927;48.146;11.420;2023-02-21T01:24:58;5.07;;;2.95;;
63784;SDS011;49927;48.146;11.420;2023-02-21T01:27:24;4.85;;;2.40;;
63784;SDS011;49927;48.146;11.420;2023-02-21T01:29:49;4.43;;;2.22;;
63784;SDS011;49927;48.146;11.420;2023-02-21T01:32:14;5.72;;;2.63;;
63784;SDS011;49927;48.146;11.420;2023-02-21T01:34:40;3.63;;;2.42;;
63784;SDS011;49927;48.146;11.420;2023-02-21T01:37:07;3.65;;;2.25;;
63784;SDS011;49927;48.146;11.420;2023-02-21T01:39:32;4.63;;;2.65;;
63784;SDS011;49927;48.146;11.420;2023-02-21T01:41:58;3.30;;;2.30;;
63784;SDS011;49927;48.146;11.420;2023-02-21T01:44:28;4.97;;;2.50;;
63784;SDS011;49927;48.146;11.420;2023-02-21T01:46:56;3.50;;;1.98;;
63784;SDS011;49927;48.146;11.420;2023-02-21T01:49:22;3.75;;;2.45;;
63784;SDS011;49927;48.146;11.420;2023-02-21T01:51:47;6.18;;;2.28;;
63784;SDS011;49927;48.146;11.420;2023-02-21T01:54:15;5.15;;;2.65;;
63784;SDS011;49927;48.146;11.420;2023-02-21T01:56:42;3.63;;;2.25;;
63784;SDS011;49927;48.146;11.420;2023-02-21T01:59:07;7.13;;;2.47;;
63784;SDS011;49927;48.146;11.420;2023-02-21T02:01:44;3.88;;;2.70;;
63784;SDS011;49927;48.146;11.420;2023-02-21T02:04:11;7.72;;;2.55;;
63784;SDS011;49927;48.146;11.420;2023-02-21T02:06:37;3.10;;;2.10;;
63784;SDS011;49927;48.146;11.420;2023-02-21T02:09:08;5.10;;;2.72;;
63784;SDS011;49927;48.146;11.420;2023-02-21T02:11:49;3.30;;;2.22;;
63784;SDS011;49927;48.146;11.420;2023-02-21T02:14:26;3.17;;;2.53;;
63784;SDS011;49927;48.146;11.420;2023-02-21T02:17:04;4.10;;;2.38;;
63784;SDS011;49927;48.146;11.420;2023-02-21T02:22:52;5.15;;;2.10;;
63784;SDS011;49927;48.146;11.420;2023-02-21T02:25:36;4.38;;;2.92;;
63784;SDS011;49927;48.146;11.420;2023-02-21T02:28:22;5.10;;;2.78;;
63784;SDS011;49927;48.146;11.420;2023-02-21T02:34:20;4.05;;;2.40;;
63784;SDS011;49927;48.146;11.420;2023-02-21T02:37:07;6.80;;;2.72;;
63784;SDS011;49927;48.146;11.420;2023-02-21T02:39:36;6.80;;;3.15;;
63784;SDS011;49927;48.146;11.420;2023-02-21T02:42:06;9.82;;;3.10;;
63784;SDS011;49927;48.146;11.420;2023-02-21T02:44:36;6.55;;;2.97;;
63784;SDS011;49927;48.146;11.420;2023-02-21T02:47:04;5.43;;;2.38;;
63784;SDS011;49927;48.146;11.420;2023-02-21T02:49:34;7.82;;;2.58;;
63784;SDS011;49927;48.146;11.420;2023-02-21T02:52:04;6.47;;;3.17;;
63784;SDS011;49927;48.146;11.420;2023-02-21T02:54:30;5.43;;;2.95;;
63784;SDS011;49927;48.146;11.420;2023-02-21T02:56:56;3.33;;;2.50;;
63784;SDS011;49927;48.146;11.420;2023-02-21T02:59:22;6.50;;;2.78;;
63784;SDS011;49927;48.146;11.420;2023-02-21T03:01:57;6.13;;;3.00;;
63784;SDS011;49927;48.146;11.420;2023-02-21T03:04:50;6.03;;;2.80;;
63784;SDS011;49927;48.146;11.420;2023-02-21T03:07:24;4.88;;;3.15;;
63784;SDS011;49927;48.146;11.420;2023-02-21T03:09:57;4.63;;;2.55;;
63784;SDS011;49927;48.146;11.420;2023-02-21T03:12:31;7.75;;;3.25;;
63784;SDS011;49927;48.146;11.420;2023-02-21T03:14:59;7.53;;;3.10;;
63784;SDS011;49927;48.146;11.420;2023-02-21T03:17:27;5.40;;;2.63;;
63784;SDS011;49927;48.146;11.420;2023-02-21T03:19:57;6.00;;;3.08;;
63784;SDS011;49927;48.146;11.420;2023-02-21T03:22:25;7.03;;;3.10;;
63784;SDS011;49927;48.146;11.420;2023-02-21T03:24:52;6.63;;;3.42;;
63784;SDS011;49927;48.146;11.420;2023-02-21T03:27:19;5.15;;;2.80;;
63784;SDS011;49927;48.146;11.420;2023-02-21T03:29:45;7.28;;;2.80;;
63784;SDS011;49927;48.146;11.420;2023-02-21T03:32:12;5.30;;;2.75;;
63784;SDS011;49927;48.146;11.420;2023-02-21T03:34:40;4.35;;;2.80;;
63784;SDS011;49927;48.146;11.420;2023-02-21T03:37:09;9.38;;;3.10;;
63784;SDS011;49927;48.146;11.420;2023-02-21T03:39:35;5.93;;;2.85;;
63784;SDS011;49927;48.146;11.420;2023-02-21T03:42:01;5.25;;;2.28;;
63784;SDS011;49927;48.146;11.420;2023-02-21T03:44:26;4.35;;;2.63;;
63784;SDS011;49927;48.146;11.420;2023-02-21T03:46:52;3.83;;;2.33;;
63784;SDS011;49927;48.146;11.420;2023-02-21T03:49:18;7.40;;;3.10;;
63784;SDS011;49927;48.146;11.420;2023-02-21T03:51:43;6.20;;;3.10;;
63784;SDS011;49927;48.146;11.420;2023-02-21T03:54:10;5.53;;;3.30;;
63784;SDS011;49927;48.146;11.420;2023-02-21T03:56:36;7.50;;;2.60;;
63784;SDS011;49927;48.146;11.420;2023-02-21T03:59:01;4.22;;;2.45;;
63784;SDS011;49927;48.146;11.420;2023-02-21T04:01:27;4.97;;;2.65;;
63784;SDS011;49927;48.146;11.420;2023-02-21T04:03:52;7.63;;;3.20;;
63784;SDS011;49927;48.146;11.420;2023-02-21T04:06:18;4.30;;;2.90;;
63784;SDS011;49927;48.146;11.420;2023-02-21T04:08:43;4.38;;;3.03;;
63784;SDS011;49927;48.146;11.420;2023-02-21T04:11:10;4.15;;;2.53;;
63784;SDS011;49927;48.146;11.420;2023-02-21T04:13:36;4.90;;;2.58;;
63784;SDS011;49927;48.146;11.420;2023-02-21T04:16:01;5.03;;;2.65;;
63784;SDS011;49927;48.146;11.420;2023-02-21T04:18:27;5.35;;;2.33;;
63784;SDS011;49927;48.146;11.420;2023-02-21T04:20:52;4.72;;;2.65;;
63784;SDS011;49927;48.146;11.420;2023-02-21T04:23:18;6.05;;;2.70;;
63784;SDS011;49927;48.146;11.420;2023-02-21T04:25:45;5.22;;;2.90;;
63784;SDS011;49927;48.146;11.420;2023-02-21T04:28:11;4.30;;;2.67;;
63784;SDS011;49927;48.146;11.420;2023-02-21T04:30:37;4.78;;;3.17;;
63784;SDS011;49927;48.146;11.420;2023-02-21T04:33:02;7.32;;;3.30;;
63784;SDS011;49927;48.146;11.420;2023-02-21T04:35:28;6.85;;;2.97;;
63784;SDS011;49927;48.146;11.420;2023-02-21T04:37:54;5.50;;;2.92;;
63784;SDS011;49927;48.146;11.420;2023-02-21T04:40:19;6.38;;;2.58;;
63784;SDS011;49927;48.146;11.420;2023-02-21T04:42:45;4.85;;;2.72;;
63784;SDS011;49927;48.146;11.420;2023-02-21T04:45:12;4.60;;;2.67;;
63784;SDS011;49927;48.146;11.420;2023-02-21T04:47:37;4.18;;;2.40;;
63784;SDS011;49927;48.146;11.420;2023-02-21T04:50:03;4.45;;;2.42;;
63784;SDS011;49927;48.146;11.420;2023-02-21T04:52:29;5.55;;;2.63;;
63784;SDS011;49927;48.146;11.420;2023-02-21T04:54:55;9.90;;;3.00;;
63784;SDS011;49927;48.146;11.420;2023-02-21T04:57:20;6.80;;;3.22;;
63784;SDS011;49927;48.146;11.420;2023-02-21T04:59:46;6.53;;;2.92;;
63784;SDS011;49927;48.146;11.420;2023-02-21T05:02:13;7.65;;;2.95;;
63784;SDS011;49927;48.146;11.420;2023-02-21T05:04:39;6.60;;;2.63;;
63784;SDS011;49927;48.146;11.420;2023-02-21T05:07:04;5.78;;;2.28;;
63784;SDS011;49927;48.146;11.420;2023-02-21T05:09:30;6.32;;;3.17;;
63784;SDS011;49927;48.146;11.420;2023-02-21T05:11:56;5.90;;;3.28;;
63784;SDS011;49927;48.146;11.420;2023-02-21T05:14:22;4.22;;;2.53;;
63784;SDS011;49927;48.146;11.420;2023-02-21T05:16:47;6.25;;;2.67;;
63784;SDS011;49927;48.146;11.420;2023-02-21T05:19:18;5.22;;;3.33;;
63784;SDS011;49927;48.146;11.420;2023-02-21T05:21:44;6.25;;;3.38;;
63784;SDS011;49927;48.146;11.420;2023-02-21T05:24:09;4.78;;;2.78;;
63784;SDS011;49927;48.146;11.420;2023-02-21T05:26:35;6.30;;;2.85;;
63784;SDS011;49927;48.146;11.420;2023-02-21T05:29:02;8.05;;;3.97;;
63784;SDS011;49927;48.146;11.420;2023-02-21T05:31:28;9.52;;;3.40;;
63784;SDS011;49927;48.146;11.420;2023-02-21T05:33:53;8.88;;;3.53;;
63784;SDS011;49927;48.146;11.420;2023-02-21T05:36:20;7.88;;;3.35;;
63784;SDS011;49927;48.146;11.420;2023-02-21T05:38:46;7.47;;;3.80;;
63784;SDS011;49927;48.146;11.420;2023-02-21T05:41:13;5.82;;;3.47;;
63784;SDS011;49927;48.146;11.420;2023-02-21T05:43:38;9.63;;;4.00;;
63784;SDS011;49927;48.146;11.420;2023-02-21T05:46:04;8.57;;;3.35;;
63784;SDS011;49927;48.146;11.420;2023-02-21T05:48:29;7.03;;;3.72;;
63784;SDS011;49927;48.146;11.420;2023-02-21T05:50:55;10.25;;;3.70;;
63784;SDS011;49927;48.146;11.420;2023-02-21T05:53:22;4.47;;;3.10;;
63784;SDS011;49927;48.146;11.420;2023-02-21T05:55:47;7.47;;;3.65;;
63784;SDS011;49927;48.146;11.420;2023-02-21T05:58:12;5.28;;;3.10;;
63784;SDS011;49927;48.146;11.420;2023-02-21T06:00:38;6.90;;;3.33;;
63784;SDS011;49927;48.146;11.420;2023-02-21T06:03:03;5.65;;;3.53;;
63784;SDS011;49927;48.146;11.420;2023-02-21T06:05:29;7.07;;;3.45;;
63784;SDS011;49927;48.146;11.420;2023-02-21T06:07:54;5.93;;;3.33;;
63784;SDS011;49927;48.146;11.420;2023-02-21T06:10:22;6.10;;;3.28;;
63784;SDS011;49927;48.146;11.420;2023-02-21T06:12:47;7.70;;;3.55;;
63784;SDS011;49927;48.146;11.420;2023-02-21T06:15:13;8.90;;;3.38;;
63784;SDS011;49927;48.146;11.420;2023-02-21T06:17:38;6.20;;;3.33;;
63784;SDS011;49927;48.146;11.420;2023-02-21T06:20:05;5.53;;;2.85;;
63784;SDS011;49927;48.146;11.420;2023-02-21T06:22:32;5.95;;;3.28;;
63784;SDS011;49927;48.146;11.420;2023-02-21T06:24:57;7.22;;;3.15;;
63784;SDS011;49927;48.146;11.420;2023-02-21T06:27:24;6.25;;;2.88;;
63784;SDS011;49927;48.146;11.420;2023-02-21T06:29:50;7.47;;;3.25;;
63784;SDS011;49927;48.146;11.420;2023-02-21T06:32:15;7.22;;;3.03;;
63784;SDS011;49927;48.146;11.420;2023-02-21T06:34:42;5.70;;;3.20;;
63784;SDS011;49927;48.146;11.420;2023-02-21T06:37:07;5.07;;;2.65;;
63784;SDS011;49927;48.146;11.420;2023-02-21T06:39:33;7.20;;;3.47;;
63784;SDS011;49927;48.146;11.420;2023-02-21T06:41:58;5.53;;;2.55;;
63784;SDS011;49927;48.146;11.420;2023-02-21T06:44:25;6.60;;;3.33;;
63784;SDS011;49927;48.146;11.420;2023-02-21T06:46:50;14.25;;;3.80;;
63784;SDS011;49927;48.146;11.420;2023-02-21T06:49:16;6.68;;;3.17;;
63784;SDS011;49927;48.146;11.420;2023-02-21T06:51:41;3.78;;;2.65;;
63784;SDS011;49927;48.146;11.420;2023-02-21T06:54:07;5.32;;;2.72;;
63784;SDS011;49927;48.146;11.420;2023-02-21T06:56:33;7.63;;;2.65;;
63784;SDS011;49927;48.146;11.420;2023-02-21T06:58:59;12.13;;;2.75;;
63784;SDS011;49927;48.146;11.420;2023-02-21T07:01:26;4.95;;;2.42;;
63784;SDS011;49927;48.146;11.420;2023-02-21T07:03:53;3.85;;;2.50;;
63784;SDS011;49927;48.146;11.420;2023-02-21T07:06:19;6.63;;;2.80;;
63784;SDS011;49927;48.146;11.420;2023-02-21T07:08:45;5.90;;;3.13;;
63784;SDS011;49927;48.146;11.420;2023-02-21T07:11:10;6.15;;;3.05;;
63784;SDS011;49927;48.146;11.420;2023-02-21T07:13:36;5.18;;;2.33;;
63784;SDS011;49927;48.146;11.420;2023-02-21T07:16:02;6.30;;;2.45;;
63784;SDS011;49927;48.146;11.420;2023-02-21T07:18:30;6.50;;;2.97;;
63784;SDS011;49927;48.146;11.420;2023-02-21T07:20:55;4.78;;;2.67;;
63784;SDS011;49927;48.146;11.420;2023-02-21T07:23:21;5.28;;;2.72;;
63784;SDS011;49927;48.146;11.420;2023-02-21T07:25:46;7.80;;;2.17;;
63784;SDS011;49927;48.146;11.420;2023-02-21T07:28:12;4.72;;;2.47;;
63784;SDS011;49927;48.146;11.420;2023-02-21T07:30:37;6.70;;;3.05;;
63784;SDS011;49927;48.146;11.420;2023-02-21T07:33:03;6.63;;;2.55;;
63784;SDS011;49927;48.146;11.420;2023-02-21T07:35:29;7.32;;;2.60;;
63784;SDS011;49927;48.146;11.420;2023-02-21T07:37:55;5.65;;;2.22;;
63784;SDS011;49927;48.146;11.420;2023-02-21T07:40:21;4.72;;;2.50;;
63784;SDS011;49927;48.146;11.420;2023-02-21T07:42:46;10.32;;;2.70;;
63784;SDS011;49927;48.146;11.420;2023-02-21T07:45:12;9.43;;;3.30;;
63784;SDS011;49927;48.146;11.420;2023-02-21T07:47:38;4.60;;;2.50;;
63784;SDS011;49927;48.146;11.420;2023-02-21T07:50:04;7.35;;;3.38;;
63784;SDS011;49927;48.146;11.420;2023-02-21T07:52:32;7.50;;;3.30;;
63784;SDS011;49927;48.146;11.420;2023-02-21T07:54:57;12.32;;;3.33;;
63784;SDS011;49927;48.146;11.420;2023-02-21T07:57:23;7.78;;;3.55;;
63784;SDS011;49927;48.146;11.420;2023-02-21T07:59:48;11.32;;;3.80;;
63784;SDS011;49927;48.146;11.420;2023-02-21T08:02:14;8.45;;;3.45;;
63784;SDS011;49927;48.146;11.420;2023-02-21T08:04:39;8.93;;;3.08;;
63784;SDS011;49927;48.146;11.420;2023-02-21T08:07:05;5.60;;;3.03;;
63784;SDS011;49927;48.146;11.420;2023-02-21T08:09:33;9.00;;;2.90;;
63784;SDS011;49927;48.146;11.420;2023-02-21T08:11:59;5.97;;;2.95;;
63784;SDS011;49927;48.146;11.420;2023-02-21T08:14:24;7.82;;;2.95;;
63784;SDS011;49927;48.146;11.420;2023-02-21T08:16:50;11.85;;;3.40;;
63784;SDS011;49927;48.146;11.420;2023-02-21T08:19:15;8.80;;;4.18;;
63784;SDS011;49927;48.146;11.420;2023-02-21T08:21:43;6.70;;;3.55;;
63784;SDS011;49927;48.146;11.420;2023-02-21T08:24:08;6.13;;;2.75;;
63784;SDS011;49927;48.146;11.420;2023-02-21T08:26:36;8.10;;;3.15;;
63784;SDS011;49927;48.146;11.420;2023-02-21T08:29:01;5.22;;;2.65;;
63784;SDS011;49927;48.146;11.420;2023-02-21T08:31:27;10.90;;;3.38;;
63784;SDS011;49927;48.146;11.420;2023-02-21T08:33:52;5.93;;;2.63;;
63784;SDS011;49927;48.146;11.420;2023-02-21T08:36:18;12.73;;;2.88;;
63784;SDS011;49927;48.146;11.420;2023-02-21T08:38:43;6.20;;;3.05;;
63784;SDS011;49927;48.146;11.420;2023-02-21T08:41:09;8.82;;;2.85;;
63784;SDS011;49927;48.146;11.420;2023-02-21T08:43:36;9.00;;;3.22;;
63784;SDS011;49927;48.146;11.420;2023-02-21T08:46:01;8.25;;;3.35;;
63784;SDS011;49927;48.146;11.420;2023-02-21T08:48:27;5.00;;;2.63;;
63784;SDS011;49927;48.146;11.420;2023-02-21T08:50:52;5.47;;;2.70;;
63784;SDS011;49927;48.146;11.420;2023-02-21T08:53:18;3.97;;;2.08;;
63784;SDS011;49927;48.146;11.420;2023-02-21T08:55:43;9.10;;;2.55;;
63784;SDS011;49927;48.146;11.420;2023-02-21T08:58:09;8.73;;;2.42;;
63784;SDS011;49927;48.146;11.420;2023-02-21T09:00:37;3.67;;;2.20;;
63784;SDS011;49927;48.146;11.420;2023-02-21T09:03:03;4.63;;;1.85;;
63784;SDS011;49927;48.146;11.420;2023-02-21T09:05:29;3.42;;;2.10;;
63784;SDS011;49927;48.146;11.420;2023-02-21T09:07:56;5.57;;;1.90;;
63784;SDS011;49927;48.146;11.420;2023-02-21T09:10:23;4.82;;;2.20;;
63784;SDS011;49927;48.146;11.420;2023-02-21T09:12:48;6.00;;;2.17;;
63784;SDS011;49927;48.146;11.420;2023-02-21T09:15:14;5.30;;;2.38;;
63784;SDS011;49927;48.146;11.420;2023-02-21T09:17:41;5.20;;;1.88;;
63784;SDS011;49927;48.146;11.420;2023-02-21T09:20:08;5.03;;;1.95;;
63784;SDS011;49927;48.146;11.420;2023-02-21T09:22:34;4.38;;;2.08;;
63784;SDS011;49927;48.146;11.420;2023-02-21T09:25:00;2.72;;;1.67;;
63784;SDS011;49927;48.146;11.420;2023-02-21T09:27:26;6.88;;;3.35;;
63784;SDS011;49927;48.146;11.420;2023-02-21T09:29:51;6.43;;;2.35;;
63784;SDS011;49927;48.146;11.420;2023-02-21T09:32:17;4.20;;;2.08;;
63784;SDS011;49927;48.146;11.420;2023-02-21T09:34:44;5.85;;;1.63;;
63784;SDS011;49927;48.146;11.420;2023-02-21T09:37:09;3.88;;;1.50;;
63784;SDS011;49927;48.146;11.420;2023-02-21T09:39:35;4.10;;;1.63;;
63784;SDS011;49927;48.146;11.420;2023-02-21T09:42:01;5.63;;;2.00;;
63784;SDS011;49927;48.146;11.420;2023-02-21T09:44:26;4.00;;;1.90;;
63784;SDS011;49927;48.146;11.420;2023-02-21T09:46:53;4.35;;;1.40;;
63784;SDS011;49927;48.146;11.420;2023-02-21T09:49:20;4.22;;;1.55;;
63784;SDS011;49927;48.146;11.420;2023-02-21T09:51:48;2.67;;;1.55;;
63784;SDS011;49927;48.146;11.420;2023-02-21T09:54:17;2.33;;;1.20;;
63784;SDS011;49927;48.146;11.420;2023-02-21T09:56:48;4.05;;;1.48;;
63784;SDS011;49927;48.146;11.420;2023-02-21T09:59:14;3.25;;;0.95;;
63784;SDS011;49927;48.146;11.420;2023-02-21T10:01:44;2.53;;;1.52;;
63784;SDS011;49927;48.146;11.420;2023-02-21T10:04:25;2.40;;;1.45;;
63784;SDS011;49927;48.146;11.420;2023-02-21T10:07:03;2.30;;;1.35;;
63784;SDS011;49927;48.146;11.420;2023-02-21T10:09:36;1.60;;;1.05;;
63784;SDS011;49927;48.146;11.420;2023-02-21T10:12:07;3.60;;;1.50;;
63784;SDS011;49927;48.146;11.420;2023-02-21T10:14:39;3.67;;;1.88;;
63784;SDS011;49927;48.146;11.420;2023-02-21T10:17:20;2.70;;;1.80;;
63784;SDS011;49927;48.146;11.420;2023-02-21T10:19:48;3.47;;;1.80;;
63784;SDS011;49927;48.146;11.420;2023-02-21T10:22:18;1.23;;;0.93;;
63784;SDS011;49927;48.146;11.420;2023-02-21T10:24:46;3.85;;;1.52;;
63784;SDS011;49927;48.146;11.420;2023-02-21T10:27:13;12.50;;;1.98;;
63784;SDS011;49927;48.146;11.420;2023-02-21T10:29:42;10.57;;;2.03;;
63784;SDS011;49927;48.146;11.420;2023-02-21T10:32:10;7.10;;;1.77;;
63784;SDS011;49927;48.146;11.420;2023-02-21T10:34:35;6.28;;;1.58;;
63784;SDS011;49927;48.146;11.420;2023-02-21T10:37:02;3.83;;;2.00;;
63784;SDS011;49927;48.146;11.420;2023-02-21T10:39:33;1.90;;;1.23;;
63784;SDS011;49927;48.146;11.420;2023-02-21T10:42:01;4.03;;;1.60;;
63784;SDS011;49927;48.146;11.420;2023-02-21T10:44:27;3.33;;;1.35;;
63784;SDS011;49927;48.146;11.420;2023-02-21T10:46:54;2.95;;;2.08;;
63784;SDS011;49927;48.146;11.420;2023-02-21T10:49:27;2.72;;;1.52;;
63784;SDS011;49927;48.146;11.420;2023-02-21T10:52:02;4.82;;;1.67;;
63784;SDS011;49927;48.146;11.420;2023-02-21T10:54:29;2.72;;;1.35;;
63784;SDS011;49927;48.146;11.420;2023-02-21T10:56:56;3.67;;;0.88;;
63784;SDS011;49927;48.146;11.420;2023-02-21T10:59:24;9.10;;;1.55;;
63784;SDS011;49927;48.146;11.420;2023-02-21T11:01:51;1.00;;;0.80;;
63784;SDS011;49927;48.146;11.420;2023-02-21T11:04:27;2.08;;;1.00;;
63784;SDS011;49927;48.146;11.420;2023-02-21T11:06:55;1.40;;;0.82;;
63784;SDS011;49927;48.146;11.420;2023-02-21T11:09:24;2.10;;;0.95;;
63784;SDS011;49927;48.146;11.420;2023-02-21T11:12:00;2.03;;;1.20;;
63784;SDS011;49927;48.146;11.420;2023-02-21T11:14:27;0.70;;;0.70;;
63784;SDS011;49927;48.146;11.420;2023-02-21T11:17:03;4.00;;;1.70;;
63784;SDS011;49927;48.146;11.420;2023-02-21T11:19:40;1.17;;;0.98;;
63784;SDS011;49927;48.146;11.420;2023-02-21T11:22:10;2.45;;;1.17;;
63784;SDS011;49927;48.146;11.420;2023-02-21T11:24:43;3.00;;;1.15;;
63784;SDS011;49927;48.146;11.420;2023-02-21T11:27:12;1.00;;;0.80;;
63784;SDS011;49927;48.146;11.420;2023-02-21T11:29:38;1.90;;;1.02;;
63784;SDS011;49927;48.146;11.420;2023-02-21T11:32:09;2.13;;;1.27;;
63784;SDS011;49927;48.146;11.420;2023-02-21T11:34:36;3.17;;;1.60;;
63784;SDS011;49927;48.146;11.420;2023-02-21T11:37:02;1.73;;;0.82;;
63784;SDS011;49927;48.146;11.420;2023-02-21T11:39:31;3.35;;;1.40;;
63784;SDS011;49927;48.146;11.420;2023-02-21T11:41:57;1.75;;;1.05;;
63784;SDS011;49927;48.146;11.420;2023-02-21T11:44:26;2.75;;;1.38;;
63784;SDS011;49927;48.146;11.420;2023-02-21T11:46:55;4.40;;;1.08;;
63784;SDS011;49927;48.146;11.420;2023-02-21T11:49:38;3.97;;;1.42;;
63784;SDS011;49927;48.146;11.420;2023-02-21T11:52:10;2.10;;;0.70;;
63784;SDS011;49927;48.146;11.420;2023-02-21T11:54:38;1.98;;;1.35;;
63784;SDS011;49927;48.146;11.420;2023-02-21T11:57:08;1.75;;;1.00;;
63784;SDS011;49927;48.146;11.420;2023-02-21T11:59:40;3.55;;;1.00;;
63784;SDS011;49927;48.146;11.420;2023-02-21T12:05:03;1.27;;;0.90;;
63784;SDS011;49927;48.146;11.420;2023-02-21T12:07:39;2.55;;;1.20;;
63784;SDS011;49927;48.146;11.420;2023-02-21T12:10:10;2.20;;;0.80;;
63784;SDS011;49927;48.146;11.420;2023-02-21T12:12:51;4.38;;;1.02;;
63784;SDS011;49927;48.146;11.420;2023-02-21T12:15:24;2.97;;;1.00;;
63784;SDS011;49927;48.146;11.420;2023-02-21T12:17:54;2.28;;;0.90;;
63784;SDS011;49927;48.146;11.420;2023-02-21T12:20:28;3.63;;;1.10;;
63784;SDS011;49927;48.146;11.420;2023-02-21T12:23:10;6.72;;;1.45;;
63784;SDS011;49927;48.146;11.420;2023-02-21T12:25:42;1.65;;;1.15;;
63784;SDS011;49927;48.146;11.420;2023-02-21T12:28:15;3.42;;;1.50;;
63784;SDS011;49927;48.146;11.420;2023-02-21T12:30:53;1.70;;;0.82;;
63784;SDS011;49927;48.146;11.420;2023-02-21T12:33:30;3.15;;;1.23;;
63784;SDS011;49927;48.146;11.420;2023-02-21T12:36:14;5.20;;;1.33;;
63784;SDS011;49927;48.146;11.420;2023-02-21T12:38:48;3.35;;;1.88;;
63784;SDS011;49927;48.146;11.420;2023-02-21T12:41:28;3.33;;;0.90;;
63784;SDS011;49927;48.146;11.420;2023-02-21T12:43:59;1.52;;;0.98;;
63784;SDS011;49927;48.146;11.420;2023-02-21T12:46:31;1.63;;;1.15;;
63784;SDS011;49927;48.146;11.420;2023-02-21T12:49:02;5.68;;;1.63;;
63784;SDS011;49927;48.146;11.420;2023-02-21T12:51:30;1.33;;;0.95;;
63784;SDS011;49927;48.146;11.420;2023-02-21T12:53:59;1.85;;;1.10;;
63784;SDS011;49927;48.146;11.420;2023-02-21T12:56:26;2.95;;;1.13;;
63784;SDS011;49927;48.146;11.420;2023-02-21T12:58:55;3.53;;;1.00;;
63784;SDS011;49927;48.146;11.420;2023-02-21T13:01:24;1.73;;;1.10;;
63784;SDS011;49927;48.146;11.420;2023-02-21T13:03:55;1.75;;;1.00;;
63784;SDS011;49927;48.146;11.420;2023-02-21T13:06:31;0.90;;;0.65;;
63784;SDS011;49927;48.146;11.420;2023-02-21T13:09:08;1.30;;;0.82;;
63784;SDS011;49927;48.146;11.420;2023-02-21T13:11:40;1.63;;;1.20;;
63784;SDS011;49927;48.146;11.420;2023-02-21T13:14:08;2.17;;;1.40;;
63784;SDS011;49927;48.146;11.420;2023-02-21T13:16:35;2.08;;;0.85;;
63784;SDS011;49927;48.146;11.420;2023-02-21T13:19:03;3.85;;;1.33;;
63784;SDS011;49927;48.146;11.420;2023-02-21T13:21:34;3.17;;;0.98;;
63784;SDS011;49927;48.146;11.420;2023-02-21T13:24:22;2.75;;;1.17;;
63784;SDS011;49927;48.146;11.420;2023-02-21T13:27:15;5.43;;;2.00;;
63784;SDS011;49927;48.146;11.420;2023-02-21T13:30:11;1.25;;;1.08;;
63784;SDS011;49927;48.146;11.420;2023-02-21T13:32:38;2.65;;;1.20;;
63784;SDS011;49927;48.146;11.420;2023-02-21T13:35:07;1.83;;;1.05;;
63784;SDS011;49927;48.146;11.420;2023-02-21T13:37:34;4.03;;;2.30;;
63784;SDS011;49927;48.146;11.420;2023-02-21T13:40:03;2.78;;;1.02;;
63784;SDS011;49927;48.146;11.420;2023-02-21T13:42:30;1.15;;;0.88;;
63784;SDS011;49927;48.146;11.420;2023-02-21T13:45:06;1.02;;;0.60;;
63784;SDS011;49927;48.146;11.420;2023-02-21T13:50:44;0.68;;;0.60;;
63784;SDS011;49927;48.146;11.420;2023-02-21T13:53:13;1.13;;;0.65;;
63784;SDS011;49927;48.146;11.420;2023-02-21T13:55:47;2.15;;;1.05;;
63784;SDS011;49927;48.146;11.420;2023-02-21T13:58:42;2.20;;;1.10;;
63784;SDS011;49927;48.146;11.420;2023-02-21T14:01:15;2.75;;;0.70;;
63784;SDS011;49927;48.146;11.420;2023-02-21T14:03:56;0.82;;;0.73;;
63784;SDS011;49927;48.146;11.420;2023-02-21T14:06:37;0.80;;;0.60;;
63784;SDS011;49927;48.146;11.420;2023-02-21T14:09:04;0.50;;;0.50;;
63784;SDS011;49927;48.146;11.420;2023-02-21T14:11:37;3.20;;;0.80;;
63784;SDS011;49927;48.146;11.420;2023-02-21T14:14:23;3.42;;;1.02;;
63784;SDS011;49927;48.146;11.420;2023-02-21T14:16:51;1.05;;;0.68;;
63784;SDS011;49927;48.146;11.420;2023-02-21T14:19:23;2.60;;;1.05;;
63784;SDS011;49927;48.146;11.420;2023-02-21T14:24:40;1.80;;;0.63;;
63784;SDS011;49927;48.146;11.420;2023-02-21T14:27:35;2.67;;;1.08;;
63784;SDS011;49927;48.146;11.420;2023-02-21T14:32:50;1.65;;;0.70;;
63784;SDS011;49927;48.146;11.420;2023-02-21T14:35:21;2.97;;;0.70;;
63784;SDS011;49927;48.146;11.420;2023-02-21T14:37:52;1.45;;;0.70;;
63784;SDS011;49927;48.146;11.420;2023-02-21T14:40:23;1.65;;;0.93;;
63784;SDS011;49927;48.146;11.420;2023-02-21T14:42:59;2.20;;;1.67;;
63784;SDS011;49927;48.146;11.420;2023-02-21T14:45:44;1.27;;;0.73;;
63784;SDS011;49927;48.146;11.420;2023-02-21T14:48:17;1.35;;;0.90;;
63784;SDS011;49927;48.146;11.420;2023-02-21T14:51:02;2.65;;;0.60;;
63784;SDS011;49927;48.146;11.420;2023-02-21T14:53:54;2.67;;;0.95;;
63784;SDS011;49927;48.146;11.420;2023-02-21T14:56:44;2.55;;;1.10;;
63784;SDS011;49927;48.146;11.420;2023-02-21T14:59:34;1.48;;;0.47;;
63784;SDS011;49927;48.146;11.420;2023-02-21T15:02:13;3.00;;;0.80;;